sensor_id;sensor_type;location;lat;lon;timestamp;pressure;altitude;pressure_sealevel;temperature;humidity
76108;BME280;64834;52.516;10.528;2023-09-30T00:02:22;101604.41;;;12.95;100.00
76108;BME280;64834;52.516;10.528;2023-09-30T00:04:47;101603.38;;;12.93;100.00
76108;BME280;64834;52.516;10.528;2023-09-30T00:07:12;101605.84;;;12.90;100.00
76108;BME280;64834;52.516;10.528;2023-09-30T00:09:38;101608.25;;;12.87;100.00
76108;BME280;64834;52.516;10.528;2023-09-30T00:12:03;101625.94;;;12.89;100.00
76108;BME280;64834;52.516;10.528;2023-09-30T00:14:29;101622.22;;;12.86;100.00
76108;BME280;64834;52.516;10.528;2023-09-30T00:16:55;101626.56;;;12.85;100.00
76108;BME280;64834;52.516;10.528;2023-09-30T00:19:20;101628.09;;;12.82;100.00
76108;BME280;64834;52.516;10.528;2023-09-30T00:21:48;101628.72;;;12.78;100.00
76108;BME280;64834;52.516;10.528;2023-09-30T00:24:13;101631.28;;;12.76;100.00
76108;BME280;64834;52.516;10.528;2023-09-30T00:26:38;101632.97;;;12.76;100.00
76108;BME280;64834;52.516;10.528;2023-09-30T00:29:04;101642.38;;;12.72;100.00
76108;BME280;64834;52.516;10.528;2023-09-30T00:31:30;101643.22;;;12.71;100.00
76108;BME280;64834;52.516;10.528;2023-09-30T00:33:55;101652.00;;;12.72;100.00
76108;BME280;64834;52.516;10.528;2023-09-30T00:36:21;101652.00;;;12.72;100.00
76108;BME280;64834;52.516;10.528;2023-09-30T00:38:46;101657.31;;;12.73;100.00
76108;BME280;64834;52.516;10.528;2023-09-30T00:41:11;101658.97;;;12.71;100.00
76108;BME280;64834;52.516;10.528;2023-09-30T00:43:37;101651.16;;;12.73;100.00
76108;BME280;64834;52.516;10.528;2023-09-30T00:46:26;101657.31;;;12.73;100.00
76108;BME280;64834;52.516;10.528;2023-09-30T00:48:53;101656.34;;;12.71;100.00
76108;BME280;64834;52.516;10.528;2023-09-30T00:51:19;101663.00;;;12.66;100.00
76108;BME280;64834;52.516;10.528;2023-09-30T00:53:44;101672.69;;;12.67;100.00
76108;BME280;64834;52.516;10.528;2023-09-30T00:56:10;101658.38;;;12.62;100.00
76108;BME280;64834;52.516;10.528;2023-09-30T00:58:38;101660.19;;;12.63;100.00
76108;BME280;64834;52.516;10.528;2023-09-30T01:01:03;101667.97;;;12.61;100.00
76108;BME280;64834;52.516;10.528;2023-09-30T01:03:29;101663.53;;;12.60;100.00
76108;BME280;64834;52.516;10.528;2023-09-30T01:05:55;101662.03;;;12.51;100.00
76108;BME280;64834;52.516;10.528;2023-09-30T01:08:21;101666.28;;;12.49;100.00
76108;BME280;64834;52.516;10.528;2023-09-30T01:10:46;101669.72;;;12.48;100.00
76108;BME280;64834;52.516;10.528;2023-09-30T01:13:12;101671.88;;;12.40;100.00
76108;BME280;64834;52.516;10.528;2023-09-30T01:15:37;101667.31;;;12.37;100.00
76108;BME280;64834;52.516;10.528;2023-09-30T01:18:03;101668.03;;;12.35;100.00
76108;BME280;64834;52.516;10.528;2023-09-30T01:20:29;101661.81;;;12.33;100.00
76108;BME280;64834;52.516;10.528;2023-09-30T01:22:56;101664.50;;;12.34;100.00
76108;BME280;64834;52.516;10.528;2023-09-30T01:25:22;101665.50;;;12.36;100.00
76108;BME280;64834;52.516;10.528;2023-09-30T01:27:47;101671.66;;;12.37;100.00
76108;BME280;64834;52.516;10.528;2023-09-30T01:30:13;101669.84;;;12.36;100.00
76108;BME280;64834;52.516;10.528;2023-09-30T01:32:39;101676.00;;;12.36;100.00
76108;BME280;64834;52.516;10.528;2023-09-30T01:35:05;101674.03;;;12.32;100.00
76108;BME280;64834;52.516;10.528;2023-09-30T01:37:30;101674.63;;;12.28;100.00
76108;BME280;64834;52.516;10.528;2023-09-30T01:39:55;101677.34;;;12.30;100.00
76108;BME280;64834;52.516;10.528;2023-09-30T01:42:21;101676.25;;;12.26;100.00
76108;BME280;64834;52.516;10.528;2023-09-30T01:44:46;101671.78;;;12.25;100.00
76108;BME280;64834;52.516;10.528;2023-09-30T01:47:12;101679.78;;;12.27;100.00
76108;BME280;64834;52.516;10.528;2023-09-30T01:49:37;101692.69;;;12.24;100.00
76108;BME280;64834;52.516;10.528;2023-09-30T01:52:03;101685.22;;;12.17;100.00
76108;BME280;64834;52.516;10.528;2023-09-30T01:54:28;101694.59;;;12.13;100.00
76108;BME280;64834;52.516;10.528;2023-09-30T01:56:53;101697.84;;;12.09;100.00
76108;BME280;64834;52.516;10.528;2023-09-30T01:59:19;101703.59;;;12.03;100.00
76108;BME280;64834;52.516;10.528;2023-09-30T02:01:44;101699.66;;;11.97;100.00
76108;BME280;64834;52.516;10.528;2023-09-30T02:04:11;101701.88;;;11.91;100.00
76108;BME280;64834;52.516;10.528;2023-09-30T02:06:37;101711.16;;;11.85;100.00
76108;BME280;64834;52.516;10.528;2023-09-30T02:09:03;101708.34;;;11.82;100.00
76108;BME280;64834;52.516;10.528;2023-09-30T02:11:29;101728.06;;;11.77;100.00
76108;BME280;64834;52.516;10.528;2023-09-30T02:13:55;101720.09;;;11.76;100.00
76108;BME280;64834;52.516;10.528;2023-09-30T02:16:20;101714.06;;;11.77;100.00
76108;BME280;64834;52.516;10.528;2023-09-30T02:18:45;101713.25;;;11.78;100.00
76108;BME280;64834;52.516;10.528;2023-09-30T02:21:11;101708.69;;;11.75;100.00
76108;BME280;64834;52.516;10.528;2023-09-30T02:23:36;101705.47;;;11.79;100.00
76108;BME280;64834;52.516;10.528;2023-09-30T02:26:02;101706.19;;;11.77;100.00
76108;BME280;64834;52.516;10.528;2023-09-30T02:28:28;101716.69;;;11.77;100.00
76108;BME280;64834;52.516;10.528;2023-09-30T02:30:53;101717.59;;;11.77;100.00
76108;BME280;64834;52.516;10.528;2023-09-30T02:33:19;101719.31;;;11.77;100.00
76108;BME280;64834;52.516;10.528;2023-09-30T02:35:44;101707.19;;;11.79;100.00
76108;BME280;64834;52.516;10.528;2023-09-30T02:38:11;101711.63;;;11.80;100.00
76108;BME280;64834;52.516;10.528;2023-09-30T02:40:36;101713.69;;;11.84;100.00
76108;BME280;64834;52.516;10.528;2023-09-30T02:43:02;101710.25;;;11.85;100.00
76108;BME280;64834;52.516;10.528;2023-09-30T02:45:27;101714.59;;;11.84;100.00
76108;BME280;64834;52.516;10.528;2023-09-30T02:47:53;101713.47;;;11.81;100.00
76108;BME280;64834;52.516;10.528;2023-09-30T02:50:18;101718.59;;;11.79;100.00
76108;BME280;64834;52.516;10.528;2023-09-30T02:52:43;101723.81;;;11.79;100.00
76108;BME280;64834;52.516;10.528;2023-09-30T02:55:10;101720.22;;;11.77;100.00
76108;BME280;64834;52.516;10.528;2023-09-30T02:57:36;101718.59;;;11.79;100.00
76108;BME280;64834;52.516;10.528;2023-09-30T03:00:05;101711.44;;;11.77;100.00
76108;BME280;64834;52.516;10.528;2023-09-30T03:02:49;101721.00;;;11.76;100.00
76108;BME280;64834;52.516;10.528;2023-09-30T03:05:16;101723.63;;;11.76;100.00
76108;BME280;64834;52.516;10.528;2023-09-30T03:07:41;101726.44;;;11.79;100.00
76108;BME280;64834;52.516;10.528;2023-09-30T03:10:07;101729.78;;;11.77;100.00
76108;BME280;64834;52.516;10.528;2023-09-30T03:12:34;101721.50;;;11.71;100.00
76108;BME280;64834;52.516;10.528;2023-09-30T03:14:59;101729.28;;;11.69;100.00
76108;BME280;64834;52.516;10.528;2023-09-30T03:17:29;101726.53;;;11.68;100.00
76108;BME280;64834;52.516;10.528;2023-09-30T03:19:54;101735.19;;;11.67;100.00
76108;BME280;64834;52.516;10.528;2023-09-30T03:22:22;101730.44;;;11.61;100.00
76108;BME280;64834;52.516;10.528;2023-09-30T03:24:47;101731.75;;;11.54;100.00
76108;BME280;64834;52.516;10.528;2023-09-30T03:27:13;101727.41;;;11.55;100.00
76108;BME280;64834;52.516;10.528;2023-09-30T03:29:39;101732.75;;;11.56;100.00
76108;BME280;64834;52.516;10.528;2023-09-30T03:32:05;101728.63;;;11.60;100.00
76108;BME280;64834;52.516;10.528;2023-09-30T03:34:30;101733.56;;;11.55;100.00
76108;BME280;64834;52.516;10.528;2023-09-30T03:36:56;101740.03;;;11.60;100.00
76108;BME280;64834;52.516;10.528;2023-09-30T03:39:23;101729.16;;;11.68;100.00
76108;BME280;64834;52.516;10.528;2023-09-30T03:41:55;101719.97;;;11.61;100.00
76108;BME280;64834;52.516;10.528;2023-09-30T03:44:22;101717.25;;;11.59;100.00
76108;BME280;64834;52.516;10.528;2023-09-30T03:46:48;101719.28;;;11.64;100.00
76108;BME280;64834;52.516;10.528;2023-09-30T03:49:13;101727.34;;;11.67;100.00
76108;BME280;64834;52.516;10.528;2023-09-30T03:51:38;101722.81;;;11.64;100.00
76108;BME280;64834;52.516;10.528;2023-09-30T03:54:04;101716.75;;;11.65;100.00
76108;BME280;64834;52.516;10.528;2023-09-30T03:56:31;101718.47;;;11.65;100.00
76108;BME280;64834;52.516;10.528;2023-09-30T03:58:56;101721.19;;;11.66;100.00
76108;BME280;64834;52.516;10.528;2023-09-30T04:01:21;101729.97;;;11.67;100.00
76108;BME280;64834;52.516;10.528;2023-09-30T04:03:48;101733.72;;;11.70;100.00
76108;BME280;64834;52.516;10.528;2023-09-30T04:06:14;101725.84;;;11.70;100.00
76108;BME280;64834;52.516;10.528;2023-09-30T04:08:39;101730.19;;;11.70;100.00
76108;BME280;64834;52.516;10.528;2023-09-30T04:11:05;101721.59;;;11.72;100.00
76108;BME280;64834;52.516;10.528;2023-09-30T04:13:31;101726.94;;;11.74;100.00
76108;BME280;64834;52.516;10.528;2023-09-30T04:15:57;101723.72;;;11.78;100.00
76108;BME280;64834;52.516;10.528;2023-09-30T04:18:25;101725.09;;;11.84;100.00
76108;BME280;64834;52.516;10.528;2023-09-30T04:20:54;101721.75;;;11.87;100.00
76108;BME280;64834;52.516;10.528;2023-09-30T04:23:19;101717.53;;;11.89;100.00
76108;BME280;64834;52.516;10.528;2023-09-30T04:25:46;101728.94;;;11.90;100.00
76108;BME280;64834;52.516;10.528;2023-09-30T04:28:12;101722.88;;;11.91;100.00
76108;BME280;64834;52.516;10.528;2023-09-30T04:30:38;101725.69;;;11.94;100.00
76108;BME280;64834;52.516;10.528;2023-09-30T04:33:04;101722.78;;;11.89;100.00
76108;BME280;64834;52.516;10.528;2023-09-30T04:35:30;101717.31;;;11.86;100.00
76108;BME280;64834;52.516;10.528;2023-09-30T04:37:56;101723.78;;;11.91;100.00
76108;BME280;64834;52.516;10.528;2023-09-30T04:40:22;101717.72;;;11.92;100.00
76108;BME280;64834;52.516;10.528;2023-09-30T04:42:48;101721.06;;;11.90;100.00
76108;BME280;64834;52.516;10.528;2023-09-30T04:45:14;101722.78;;;11.89;100.00
76108;BME280;64834;52.516;10.528;2023-09-30T04:47:42;101725.50;;;11.91;100.00
76108;BME280;64834;52.516;10.528;2023-09-30T04:50:10;101735.75;;;11.87;100.00
76108;BME280;64834;52.516;10.528;2023-09-30T04:52:36;101736.00;;;11.91;100.00
76108;BME280;64834;52.516;10.528;2023-09-30T04:55:02;101745.16;;;11.84;100.00
76108;BME280;64834;52.516;10.528;2023-09-30T04:57:31;101746.06;;;11.84;100.00
76108;BME280;64834;52.516;10.528;2023-09-30T04:59:57;101752.31;;;11.86;100.00
76108;BME280;64834;52.516;10.528;2023-09-30T05:02:23;101752.31;;;11.86;100.00
76108;BME280;64834;52.516;10.528;2023-09-30T05:04:48;101757.78;;;11.90;100.00
76108;BME280;64834;52.516;10.528;2023-09-30T05:07:14;101756.97;;;11.91;100.00
76108;BME280;64834;52.516;10.528;2023-09-30T05:09:39;101759.91;;;11.95;100.00
76108;BME280;64834;52.516;10.528;2023-09-30T05:12:05;101755.44;;;11.94;100.00
76108;BME280;64834;52.516;10.528;2023-09-30T05:14:31;101760.19;;;12.00;100.00
76108;BME280;64834;52.516;10.528;2023-09-30T05:16:56;101752.63;;;12.04;100.00
76108;BME280;64834;52.516;10.528;2023-09-30T05:19:22;101759.09;;;12.09;100.00
76108;BME280;64834;52.516;10.528;2023-09-30T05:21:47;101773.63;;;12.04;100.00
76108;BME280;64834;52.516;10.528;2023-09-30T05:24:12;101768.59;;;12.07;100.00
76108;BME280;64834;52.516;10.528;2023-09-30T05:26:38;101766.66;;;12.05;100.00
76108;BME280;64834;52.516;10.528;2023-09-30T05:29:03;101769.19;;;12.03;100.00
76108;BME280;64834;52.516;10.528;2023-09-30T05:31:28;101765.97;;;12.07;100.00
76108;BME280;64834;52.516;10.528;2023-09-30T05:33:54;101775.25;;;12.02;100.00
76108;BME280;64834;52.516;10.528;2023-09-30T05:36:20;101776.97;;;12.02;100.00
76108;BME280;64834;52.516;10.528;2023-09-30T05:38:46;101769.78;;;12.12;100.00
76108;BME280;64834;52.516;10.528;2023-09-30T05:41:14;101767.97;;;12.11;100.00
76108;BME280;64834;52.516;10.528;2023-09-30T05:43:39;101776.06;;;12.14;100.00
76108;BME280;64834;52.516;10.528;2023-09-30T05:46:06;101779.78;;;12.18;100.00
76108;BME280;64834;52.516;10.528;2023-09-30T05:48:31;101774.13;;;12.25;100.00
76108;BME280;64834;52.516;10.528;2023-09-30T05:50:57;101769.19;;;12.30;100.00
76108;BME280;64834;52.516;10.528;2023-09-30T05:53:22;101770.31;;;12.33;100.00
76108;BME280;64834;52.516;10.528;2023-09-30T05:55:47;101776.38;;;12.32;100.00
76108;BME280;64834;52.516;10.528;2023-09-30T05:58:14;101782.41;;;12.31;100.00
76108;BME280;64834;52.516;10.528;2023-09-30T06:00:41;101787.16;;;12.37;100.00
76108;BME280;64834;52.516;10.528;2023-09-30T06:03:08;101788.47;;;12.30;100.00
76108;BME280;64834;52.516;10.528;2023-09-30T06:05:33;101797.47;;;12.34;100.00
76108;BME280;64834;52.516;10.528;2023-09-30T06:08:00;101780.81;;;12.33;100.00
76108;BME280;64834;52.516;10.528;2023-09-30T06:10:28;101776.47;;;12.34;100.00
76108;BME280;64834;52.516;10.528;2023-09-30T06:12:53;101779.50;;;12.40;100.00
76108;BME280;64834;52.516;10.528;2023-09-30T06:15:20;101774.94;;;12.37;100.00
76108;BME280;64834;52.516;10.528;2023-09-30T06:17:52;101790.69;;;12.37;100.00
76108;BME280;64834;52.516;10.528;2023-09-30T06:20:21;101802.22;;;12.39;100.00
76108;BME280;64834;52.516;10.528;2023-09-30T06:22:48;101808.28;;;12.38;100.00
76108;BME280;64834;52.516;10.528;2023-09-30T06:25:17;101802.31;;;12.41;100.00
76108;BME280;64834;52.516;10.528;2023-09-30T06:27:44;101808.56;;;12.43;100.00
76108;BME280;64834;52.516;10.528;2023-09-30T06:30:10;101813.22;;;12.47;100.00
76108;BME280;64834;52.516;10.528;2023-09-30T06:32:36;101822.81;;;12.60;100.00
76108;BME280;64834;52.516;10.528;2023-09-30T06:35:02;101825.44;;;12.60;100.00
76108;BME280;64834;52.516;10.528;2023-09-30T06:37:28;101825.44;;;12.60;100.00
76108;BME280;64834;52.516;10.528;2023-09-30T06:39:55;101828.03;;;12.73;100.00
76108;BME280;64834;52.516;10.528;2023-09-30T06:42:21;101830.94;;;12.91;100.00
76108;BME280;64834;52.516;10.528;2023-09-30T06:44:46;101837.56;;;13.26;100.00
76108;BME280;64834;52.516;10.528;2023-09-30T06:47:12;101841.03;;;13.67;100.00
76108;BME280;64834;52.516;10.528;2023-09-30T06:49:38;101847.72;;;13.90;99.53
76108;BME280;64834;52.516;10.528;2023-09-30T06:52:04;101848.63;;;14.20;97.77
76108;BME280;64834;52.516;10.528;2023-09-30T06:54:30;101849.63;;;14.37;96.74
76108;BME280;64834;52.516;10.528;2023-09-30T06:56:56;101837.16;;;14.64;95.30
76108;BME280;64834;52.516;10.528;2023-09-30T06:59:21;101840.06;;;14.69;93.73
76108;BME280;64834;52.516;10.528;2023-09-30T07:01:47;101839.94;;;14.82;93.52
76108;BME280;64834;52.516;10.528;2023-09-30T07:04:12;101854.94;;;14.83;94.14
76108;BME280;64834;52.516;10.528;2023-09-30T07:06:37;101847.56;;;14.92;92.84
76108;BME280;64834;52.516;10.528;2023-09-30T07:09:03;101847.84;;;15.13;91.72
76108;BME280;64834;52.516;10.528;2023-09-30T07:11:30;101851.47;;;14.99;91.66
76108;BME280;64834;52.516;10.528;2023-09-30T07:13:58;101846.72;;;15.24;91.79
76108;BME280;64834;52.516;10.528;2023-09-30T07:16:23;101851.75;;;15.36;91.44
76108;BME280;64834;52.516;10.528;2023-09-30T07:18:49;101859.44;;;15.48;90.03
76108;BME280;64834;52.516;10.528;2023-09-30T07:21:15;101864.03;;;15.52;89.50
76108;BME280;64834;52.516;10.528;2023-09-30T07:23:41;101865.72;;;15.82;89.45
76108;BME280;64834;52.516;10.528;2023-09-30T07:26:07;101869.94;;;15.62;89.31
76108;BME280;64834;52.516;10.528;2023-09-30T07:28:33;101867.28;;;15.95;88.67
76108;BME280;64834;52.516;10.528;2023-09-30T07:30:58;101861.72;;;16.23;86.33
76108;BME280;64834;52.516;10.528;2023-09-30T07:33:24;101871.38;;;16.06;86.72
76108;BME280;64834;52.516;10.528;2023-09-30T07:35:49;101874.13;;;15.59;89.18
76108;BME280;64834;52.516;10.528;2023-09-30T07:38:14;101874.78;;;15.71;89.08
76108;BME280;64834;52.516;10.528;2023-09-30T07:40:40;101879.31;;;15.90;88.69
76108;BME280;64834;52.516;10.528;2023-09-30T07:43:05;101877.94;;;15.80;87.82
76108;BME280;64834;52.516;10.528;2023-09-30T07:45:30;101879.94;;;15.84;89.94
76108;BME280;64834;52.516;10.528;2023-09-30T07:47:56;101878.09;;;15.83;90.17
76108;BME280;64834;52.516;10.528;2023-09-30T07:50:23;101883.03;;;15.94;89.42
76108;BME280;64834;52.516;10.528;2023-09-30T07:52:48;101877.44;;;16.04;87.74
76108;BME280;64834;52.516;10.528;2023-09-30T07:55:14;101883.03;;;15.77;88.89
76108;BME280;64834;52.516;10.528;2023-09-30T07:57:40;101887.09;;;15.71;87.97
76108;BME280;64834;52.516;10.528;2023-09-30T08:00:07;101890.59;;;15.55;89.35
76108;BME280;64834;52.516;10.528;2023-09-30T08:02:34;101894.09;;;15.86;88.44
76108;BME280;64834;52.516;10.528;2023-09-30T08:04:59;101895.00;;;16.03;87.94
76108;BME280;64834;52.516;10.528;2023-09-30T08:07:26;101898.31;;;15.99;86.37
76108;BME280;64834;52.516;10.528;2023-09-30T08:09:51;101900.28;;;16.03;87.41
76108;BME280;64834;52.516;10.528;2023-09-30T08:12:16;101896.69;;;16.19;85.83
76108;BME280;64834;52.516;10.528;2023-09-30T08:14:42;101899.59;;;16.24;85.00
76108;BME280;64834;52.516;10.528;2023-09-30T08:17:09;101897.25;;;15.79;85.96
76108;BME280;64834;52.516;10.528;2023-09-30T08:19:35;101900.81;;;15.49;89.07
76108;BME280;64834;52.516;10.528;2023-09-30T08:22:01;101906.25;;;15.67;90.13
76108;BME280;64834;52.516;10.528;2023-09-30T08:24:28;101908.69;;;15.96;87.18
76108;BME280;64834;52.516;10.528;2023-09-30T08:26:53;101913.50;;;16.03;86.79
76108;BME280;64834;52.516;10.528;2023-09-30T08:29:20;101917.75;;;16.17;86.32
76108;BME280;64834;52.516;10.528;2023-09-30T08:31:46;101908.25;;;16.21;86.78
76108;BME280;64834;52.516;10.528;2023-09-30T08:34:12;101916.84;;;16.51;86.69
76108;BME280;64834;52.516;10.528;2023-09-30T08:36:40;101912.91;;;16.43;85.12
76108;BME280;64834;52.516;10.528;2023-09-30T08:39:05;101916.44;;;16.78;84.46
76108;BME280;64834;52.516;10.528;2023-09-30T08:41:32;101910.44;;;16.80;82.54
76108;BME280;64834;52.516;10.528;2023-09-30T08:44:02;101911.03;;;16.92;82.29
76108;BME280;64834;52.516;10.528;2023-09-30T08:46:32;101909.44;;;16.96;82.44
76108;BME280;64834;52.516;10.528;2023-09-30T08:49:01;101909.44;;;17.14;81.12
76108;BME280;64834;52.516;10.528;2023-09-30T08:51:28;101909.06;;;17.24;82.05
76108;BME280;64834;52.516;10.528;2023-09-30T08:53:54;101913.97;;;16.98;81.70
76108;BME280;64834;52.516;10.528;2023-09-30T08:56:24;101913.59;;;16.73;81.28
76108;BME280;64834;52.516;10.528;2023-09-30T08:58:52;101919.38;;;16.66;82.59
76108;BME280;64834;52.516;10.528;2023-09-30T09:01:18;101914.66;;;16.77;82.11
76108;BME280;64834;52.516;10.528;2023-09-30T09:03:44;101916.97;;;16.70;82.47
76108;BME280;64834;52.516;10.528;2023-09-30T09:06:09;101909.72;;;17.02;81.29
76108;BME280;64834;52.516;10.528;2023-09-30T09:08:34;101917.28;;;17.12;79.54
76108;BME280;64834;52.516;10.528;2023-09-30T09:11:00;101918.13;;;16.93;80.48
76108;BME280;64834;52.516;10.528;2023-09-30T09:13:26;101918.50;;;16.83;81.04
76108;BME280;64834;52.516;10.528;2023-09-30T09:16:10;101923.41;;;16.93;81.24
76108;BME280;64834;52.516;10.528;2023-09-30T09:18:35;101925.16;;;17.11;82.68
76108;BME280;64834;52.516;10.528;2023-09-30T09:21:14;101920.13;;;16.97;79.81
76108;BME280;64834;52.516;10.528;2023-09-30T09:23:42;101921.91;;;16.81;81.07
76108;BME280;64834;52.516;10.528;2023-09-30T09:26:09;101929.16;;;17.03;79.51
76108;BME280;64834;52.516;10.528;2023-09-30T09:28:35;101928.47;;;16.71;79.47
76108;BME280;64834;52.516;10.528;2023-09-30T09:31:28;101926.84;;;16.91;81.57
76108;BME280;64834;52.516;10.528;2023-09-30T09:33:54;101927.03;;;17.13;79.77
76108;BME280;64834;52.516;10.528;2023-09-30T09:36:19;101930.50;;;17.30;78.67
76108;BME280;64834;52.516;10.528;2023-09-30T09:38:49;101924.97;;;17.43;78.66
76108;BME280;64834;52.516;10.528;2023-09-30T09:41:18;101919.81;;;17.46;78.08
76108;BME280;64834;52.516;10.528;2023-09-30T09:43:43;101934.44;;;17.58;77.24
76108;BME280;64834;52.516;10.528;2023-09-30T09:46:09;101922.13;;;17.58;76.77
76108;BME280;64834;52.516;10.528;2023-09-30T09:48:36;101922.94;;;17.75;75.85
76108;BME280;64834;52.516;10.528;2023-09-30T09:51:02;101919.97;;;17.69;77.40
76108;BME280;64834;52.516;10.528;2023-09-30T09:53:34;101920.31;;;17.75;75.69
76108;BME280;64834;52.516;10.528;2023-09-30T09:56:01;101918.28;;;17.71;75.90
76108;BME280;64834;52.516;10.528;2023-09-30T09:58:32;101921.31;;;17.78;75.98
76108;BME280;64834;52.516;10.528;2023-09-30T10:01:00;101914.75;;;17.70;76.05
76108;BME280;64834;52.516;10.528;2023-09-30T10:03:26;101918.19;;;17.68;77.34
76108;BME280;64834;52.516;10.528;2023-09-30T10:05:51;101914.97;;;17.56;77.37
76108;BME280;64834;52.516;10.528;2023-09-30T10:08:19;101918.00;;;17.65;75.03
76108;BME280;64834;52.516;10.528;2023-09-30T10:10:46;101914.31;;;17.79;74.92
76108;BME280;64834;52.516;10.528;2023-09-30T10:19:08;101922.59;;;17.87;73.52
76108;BME280;64834;52.516;10.528;2023-09-30T10:21:33;101925.88;;;18.00;71.70
76108;BME280;64834;52.516;10.528;2023-09-30T10:37:42;101922.59;;;17.87;70.09
76108;BME280;64834;52.516;10.528;2023-09-30T10:40:08;101929.47;;;18.02;72.50
76108;BME280;64834;52.516;10.528;2023-09-30T10:42:47;101925.72;;;17.97;71.18
76108;BME280;64834;52.516;10.528;2023-09-30T10:45:46;101931.47;;;18.27;72.16
76108;BME280;64834;52.516;10.528;2023-09-30T10:50:50;101926.06;;;18.24;69.96
76108;BME280;64834;52.516;10.528;2023-09-30T10:53:17;101930.88;;;18.14;68.98
76108;BME280;64834;52.516;10.528;2023-09-30T10:55:45;101937.03;;;18.13;68.62
76108;BME280;64834;52.516;10.528;2023-09-30T10:58:10;101927.66;;;18.21;67.30
76108;BME280;64834;52.516;10.528;2023-09-30T11:00:35;101924.59;;;18.31;67.98
76108;BME280;64834;52.516;10.528;2023-09-30T11:03:01;101923.44;;;18.66;67.80
76108;BME280;64834;52.516;10.528;2023-09-30T11:05:27;101927.84;;;18.66;65.77
76108;BME280;64834;52.516;10.528;2023-09-30T11:07:57;101917.88;;;18.60;65.96
76108;BME280;64834;52.516;10.528;2023-09-30T11:10:24;101915.81;;;18.53;65.40
76108;BME280;64834;52.516;10.528;2023-09-30T11:12:56;101904.63;;;18.60;66.36
76108;BME280;64834;52.516;10.528;2023-09-30T11:15:22;101903.41;;;18.73;66.39
76108;BME280;64834;52.516;10.528;2023-09-30T11:17:48;101903.72;;;18.59;63.60
76108;BME280;64834;52.516;10.528;2023-09-30T11:20:13;101901.00;;;18.58;64.77
76108;BME280;64834;52.516;10.528;2023-09-30T11:22:40;101921.38;;;18.38;62.74
76108;BME280;64834;52.516;10.528;2023-09-30T11:25:06;101912.63;;;18.41;64.37
76108;BME280;64834;52.516;10.528;2023-09-30T11:27:32;101913.25;;;18.54;63.14
76108;BME280;64834;52.516;10.528;2023-09-30T11:29:58;101908.03;;;18.77;63.13
76108;BME280;64834;52.516;10.528;2023-09-30T11:32:28;101905.56;;;18.81;61.64
76108;BME280;64834;52.516;10.528;2023-09-30T11:34:54;101903.41;;;18.52;62.27
76108;BME280;64834;52.516;10.528;2023-09-30T11:37:20;101909.16;;;18.42;62.59
76108;BME280;64834;52.516;10.528;2023-09-30T11:39:47;101890.47;;;18.59;63.80
76108;BME280;64834;52.516;10.528;2023-09-30T11:42:17;101903.81;;;18.82;62.95
76108;BME280;64834;52.516;10.528;2023-09-30T11:44:48;101900.47;;;18.86;61.08
76108;BME280;64834;52.516;10.528;2023-09-30T11:47:15;101898.06;;;18.92;60.47
76108;BME280;64834;52.516;10.528;2023-09-30T11:49:42;101900.47;;;18.86;60.01
76108;BME280;64834;52.516;10.528;2023-09-30T11:52:15;101888.75;;;18.81;59.51
76108;BME280;64834;52.516;10.528;2023-09-30T11:54:42;101888.97;;;19.08;59.79
76108;BME280;64834;52.516;10.528;2023-09-30T11:57:11;101887.19;;;18.86;59.94
76108;BME280;64834;52.516;10.528;2023-09-30T11:59:40;101887.31;;;18.89;60.29
76108;BME280;64834;52.516;10.528;2023-09-30T12:02:06;101891.75;;;18.90;57.95
76108;BME280;64834;52.516;10.528;2023-09-30T12:04:32;101885.31;;;18.83;60.29
76108;BME280;64834;52.516;10.528;2023-09-30T12:06:59;101886.59;;;18.93;61.40
76108;BME280;64834;52.516;10.528;2023-09-30T12:09:25;101892.25;;;19.02;61.10
76108;BME280;64834;52.516;10.528;2023-09-30T12:11:54;101894.25;;;19.08;59.42
76108;BME280;64834;52.516;10.528;2023-09-30T12:14:21;101888.16;;;18.88;60.19
76108;BME280;64834;52.516;10.528;2023-09-30T12:16:47;101892.72;;;19.13;60.04
76108;BME280;64834;52.516;10.528;2023-09-30T12:19:19;101895.19;;;19.31;59.72
76108;BME280;64834;52.516;10.528;2023-09-30T12:21:46;101897.94;;;19.34;58.36
76108;BME280;64834;52.516;10.528;2023-09-30T12:24:14;101882.38;;;19.21;58.33
76108;BME280;64834;52.516;10.528;2023-09-30T12:26:49;101883.06;;;19.37;57.66
76108;BME280;64834;52.516;10.528;2023-09-30T12:29:15;101871.91;;;19.24;56.98
76108;BME280;64834;52.516;10.528;2023-09-30T12:31:43;101875.94;;;19.59;57.04
76108;BME280;64834;52.516;10.528;2023-09-30T12:34:09;101868.56;;;19.29;55.59
76108;BME280;64834;52.516;10.528;2023-09-30T12:36:34;101869.34;;;19.49;56.37
76108;BME280;64834;52.516;10.528;2023-09-30T12:38:59;101867.66;;;19.29;56.47
76108;BME280;64834;52.516;10.528;2023-09-30T12:41:25;101864.75;;;19.45;57.36
76108;BME280;64834;52.516;10.528;2023-09-30T12:43:50;101865.81;;;19.73;55.33
76108;BME280;64834;52.516;10.528;2023-09-30T12:46:15;101861.88;;;19.61;54.32
76108;BME280;64834;52.516;10.528;2023-09-30T12:48:41;101867.66;;;19.51;51.93
76108;BME280;64834;52.516;10.528;2023-09-30T12:51:07;101863.69;;;19.62;53.78
76108;BME280;64834;52.516;10.528;2023-09-30T12:53:35;101860.84;;;19.58;53.94
76108;BME280;64834;52.516;10.528;2023-09-30T12:56:00;101856.63;;;19.40;56.12